sensor_id;sensor_type;location;lat;lon;timestamp;P1;durP1;ratioP1;P2;durP2;ratioP2
55212;SDS011;41083;52.932;6.674;2022-08-19T00:01:49;2.50;;;1.42;;
55212;SDS011;41083;52.932;6.674;2022-08-19T00:04:17;2.50;;;1.25;;
55212;SDS011;41083;52.932;6.674;2022-08-19T00:06:44;2.38;;;1.02;;
55212;SDS011;41083;52.932;6.674;2022-08-19T00:09:12;2.55;;;1.15;;
55212;SDS011;41083;52.932;6.674;2022-08-19T00:11:39;1.77;;;1.00;;
55212;SDS011;41083;52.932;6.674;2022-08-19T00:14:06;3.25;;;1.15;;
55212;SDS011;41083;52.932;6.674;2022-08-19T00:16:34;1.90;;;0.80;;
55212;SDS011;41083;52.932;6.674;2022-08-19T00:19:01;1.88;;;0.82;;
55212;SDS011;41083;52.932;6.674;2022-08-19T00:21:27;2.80;;;0.82;;
55212;SDS011;41083;52.932;6.674;2022-08-19T00:23:53;1.55;;;0.80;;
55212;SDS011;41083;52.932;6.674;2022-08-19T00:26:23;1.15;;;0.80;;
55212;SDS011;41083;52.932;6.674;2022-08-19T00:28:49;2.08;;;0.90;;
55212;SDS011;41083;52.932;6.674;2022-08-19T00:31:15;2.10;;;1.13;;
55212;SDS011;41083;52.932;6.674;2022-08-19T00:33:41;2.30;;;1.15;;
55212;SDS011;41083;52.932;6.674;2022-08-19T00:36:08;1.25;;;0.90;;
55212;SDS011;41083;52.932;6.674;2022-08-19T00:38:37;2.55;;;1.23;;
55212;SDS011;41083;52.932;6.674;2022-08-19T00:41:06;1.85;;;1.02;;
55212;SDS011;41083;52.932;6.674;2022-08-19T00:43:32;2.22;;;1.15;;
55212;SDS011;41083;52.932;6.674;2022-08-19T00:45:58;3.03;;;0.80;;
55212;SDS011;41083;52.932;6.674;2022-08-19T00:48:24;3.20;;;1.23;;
55212;SDS011;41083;52.932;6.674;2022-08-19T00:50:50;2.58;;;1.40;;
55212;SDS011;41083;52.932;6.674;2022-08-19T00:53:19;1.60;;;1.00;;
55212;SDS011;41083;52.932;6.674;2022-08-19T00:55:48;2.15;;;1.00;;
55212;SDS011;41083;52.932;6.674;2022-08-19T00:58:18;1.67;;;0.88;;
55212;SDS011;41083;52.932;6.674;2022-08-19T01:00:46;1.30;;;0.50;;
55212;SDS011;41083;52.932;6.674;2022-08-19T01:03:14;2.50;;;0.80;;
55212;SDS011;41083;52.932;6.674;2022-08-19T01:05:42;2.00;;;0.80;;
55212;SDS011;41083;52.932;6.674;2022-08-19T01:08:09;1.90;;;0.75;;
55212;SDS011;41083;52.932;6.674;2022-08-19T01:10:40;2.05;;;0.85;;
55212;SDS011;41083;52.932;6.674;2022-08-19T01:13:09;1.67;;;0.65;;
55212;SDS011;41083;52.932;6.674;2022-08-19T01:15:40;1.10;;;0.60;;
55212;SDS011;41083;52.932;6.674;2022-08-19T01:18:15;2.13;;;1.00;;
55212;SDS011;41083;52.932;6.674;2022-08-19T01:20:42;2.63;;;1.05;;
55212;SDS011;41083;52.932;6.674;2022-08-19T01:23:09;1.70;;;0.75;;
55212;SDS011;41083;52.932;6.674;2022-08-19T01:25:43;1.70;;;0.90;;
55212;SDS011;41083;52.932;6.674;2022-08-19T01:28:20;1.55;;;0.85;;
55212;SDS011;41083;52.932;6.674;2022-08-19T01:30:47;3.05;;;1.27;;
55212;SDS011;41083;52.932;6.674;2022-08-19T01:33:13;2.00;;;1.17;;
55212;SDS011;41083;52.932;6.674;2022-08-19T01:35:40;1.27;;;0.68;;
55212;SDS011;41083;52.932;6.674;2022-08-19T01:38:07;1.83;;;1.00;;
55212;SDS011;41083;52.932;6.674;2022-08-19T01:40:36;2.30;;;1.30;;
55212;SDS011;41083;52.932;6.674;2022-08-19T01:43:04;2.00;;;1.05;;
55212;SDS011;41083;52.932;6.674;2022-08-19T01:45:31;1.80;;;0.88;;
55212;SDS011;41083;52.932;6.674;2022-08-19T01:47:59;2.85;;;1.30;;
55212;SDS011;41083;52.932;6.674;2022-08-19T01:50:25;2.63;;;1.30;;
55212;SDS011;41083;52.932;6.674;2022-08-19T01:52:51;2.45;;;1.17;;
55212;SDS011;41083;52.932;6.674;2022-08-19T01:55:18;3.40;;;1.60;;
55212;SDS011;41083;52.932;6.674;2022-08-19T01:57:50;2.20;;;1.17;;
55212;SDS011;41083;52.932;6.674;2022-08-19T02:00:20;2.05;;;0.98;;
55212;SDS011;41083;52.932;6.674;2022-08-19T02:02:48;2.03;;;1.00;;
55212;SDS011;41083;52.932;6.674;2022-08-19T02:05:14;2.00;;;0.98;;
55212;SDS011;41083;52.932;6.674;2022-08-19T02:07:43;1.98;;;0.98;;
55212;SDS011;41083;52.932;6.674;2022-08-19T02:10:11;2.25;;;1.20;;
55212;SDS011;41083;52.932;6.674;2022-08-19T02:12:39;3.30;;;1.80;;
55212;SDS011;41083;52.932;6.674;2022-08-19T02:15:05;2.60;;;1.05;;
55212;SDS011;41083;52.932;6.674;2022-08-19T02:17:32;2.92;;;1.30;;
55212;SDS011;41083;52.932;6.674;2022-08-19T02:19:58;2.33;;;1.08;;
55212;SDS011;41083;52.932;6.674;2022-08-19T02:22:25;3.13;;;1.33;;
55212;SDS011;41083;52.932;6.674;2022-08-19T02:24:52;4.35;;;1.60;;
55212;SDS011;41083;52.932;6.674;2022-08-19T02:27:18;3.00;;;1.52;;
55212;SDS011;41083;52.932;6.674;2022-08-19T02:29:45;3.92;;;2.03;;
55212;SDS011;41083;52.932;6.674;2022-08-19T02:32:14;3.42;;;1.80;;
55212;SDS011;41083;52.932;6.674;2022-08-19T02:34:40;3.60;;;2.00;;
55212;SDS011;41083;52.932;6.674;2022-08-19T02:37:06;3.30;;;1.45;;
55212;SDS011;41083;52.932;6.674;2022-08-19T02:39:51;3.58;;;1.50;;
55212;SDS011;41083;52.932;6.674;2022-08-19T02:42:17;2.67;;;1.30;;
55212;SDS011;41083;52.932;6.674;2022-08-19T02:44:43;3.15;;;1.55;;
55212;SDS011;41083;52.932;6.674;2022-08-19T02:47:09;3.40;;;1.60;;
55212;SDS011;41083;52.932;6.674;2022-08-19T02:49:35;2.83;;;1.30;;
55212;SDS011;41083;52.932;6.674;2022-08-19T02:52:00;2.78;;;1.17;;
55212;SDS011;41083;52.932;6.674;2022-08-19T02:54:26;3.45;;;1.55;;
55212;SDS011;41083;52.932;6.674;2022-08-19T02:56:52;2.88;;;1.08;;
55212;SDS011;41083;52.932;6.674;2022-08-19T02:59:18;2.22;;;1.15;;
55212;SDS011;41083;52.932;6.674;2022-08-19T03:01:44;2.65;;;1.25;;
55212;SDS011;41083;52.932;6.674;2022-08-19T03:04:11;2.53;;;1.10;;
55212;SDS011;41083;52.932;6.674;2022-08-19T03:06:39;4.72;;;1.77;;
55212;SDS011;41083;52.932;6.674;2022-08-19T03:09:07;3.45;;;1.48;;
55212;SDS011;41083;52.932;6.674;2022-08-19T03:11:33;2.88;;;0.98;;
55212;SDS011;41083;52.932;6.674;2022-08-19T03:14:00;1.50;;;0.75;;
55212;SDS011;41083;52.932;6.674;2022-08-19T03:16:28;2.47;;;1.00;;
55212;SDS011;41083;52.932;6.674;2022-08-19T03:18:56;2.20;;;1.00;;
55212;SDS011;41083;52.932;6.674;2022-08-19T03:21:25;2.42;;;0.93;;
55212;SDS011;41083;52.932;6.674;2022-08-19T03:23:56;3.17;;;1.35;;
55212;SDS011;41083;52.932;6.674;2022-08-19T03:26:22;3.28;;;1.30;;
55212;SDS011;41083;52.932;6.674;2022-08-19T03:28:48;2.08;;;0.90;;
55212;SDS011;41083;52.932;6.674;2022-08-19T03:31:15;2.28;;;1.20;;
55212;SDS011;41083;52.932;6.674;2022-08-19T03:33:42;2.42;;;1.02;;
55212;SDS011;41083;52.932;6.674;2022-08-19T03:36:13;2.00;;;1.08;;
55212;SDS011;41083;52.932;6.674;2022-08-19T03:38:42;2.78;;;1.25;;
55212;SDS011;41083;52.932;6.674;2022-08-19T03:41:11;2.70;;;0.98;;
55212;SDS011;41083;52.932;6.674;2022-08-19T03:43:41;1.63;;;0.90;;
55212;SDS011;41083;52.932;6.674;2022-08-19T03:46:09;4.13;;;1.63;;
55212;SDS011;41083;52.932;6.674;2022-08-19T03:48:37;3.10;;;1.10;;
55212;SDS011;41083;52.932;6.674;2022-08-19T03:51:04;1.98;;;0.98;;
55212;SDS011;41083;52.932;6.674;2022-08-19T03:53:30;2.08;;;0.93;;
55212;SDS011;41083;52.932;6.674;2022-08-19T03:55:57;1.48;;;0.60;;
55212;SDS011;41083;52.932;6.674;2022-08-19T03:58:25;1.42;;;0.65;;
55212;SDS011;41083;52.932;6.674;2022-08-19T04:00:53;1.38;;;0.57;;
55212;SDS011;41083;52.932;6.674;2022-08-19T04:03:20;2.13;;;0.82;;
55212;SDS011;41083;52.932;6.674;2022-08-19T04:05:46;1.35;;;0.68;;
55212;SDS011;41083;52.932;6.674;2022-08-19T04:08:12;1.73;;;0.63;;
55212;SDS011;41083;52.932;6.674;2022-08-19T04:10:38;2.08;;;1.00;;
55212;SDS011;41083;52.932;6.674;2022-08-19T04:13:05;3.67;;;1.38;;
55212;SDS011;41083;52.932;6.674;2022-08-19T04:15:32;2.45;;;0.88;;
55212;SDS011;41083;52.932;6.674;2022-08-19T04:18:04;3.47;;;1.27;;
55212;SDS011;41083;52.932;6.674;2022-08-19T04:20:33;3.58;;;1.48;;
55212;SDS011;41083;52.932;6.674;2022-08-19T04:23:10;3.72;;;1.58;;
55212;SDS011;41083;52.932;6.674;2022-08-19T04:25:37;3.00;;;1.05;;
55212;SDS011;41083;52.932;6.674;2022-08-19T04:28:04;3.83;;;1.60;;
55212;SDS011;41083;52.932;6.674;2022-08-19T04:30:31;3.75;;;1.42;;
55212;SDS011;41083;52.932;6.674;2022-08-19T04:33:03;2.95;;;1.10;;
55212;SDS011;41083;52.932;6.674;2022-08-19T04:35:34;2.22;;;1.08;;
55212;SDS011;41083;52.932;6.674;2022-08-19T04:38:04;3.38;;;1.27;;
55212;SDS011;41083;52.932;6.674;2022-08-19T04:40:30;2.80;;;1.27;;
55212;SDS011;41083;52.932;6.674;2022-08-19T04:43:14;2.40;;;1.20;;
55212;SDS011;41083;52.932;6.674;2022-08-19T04:45:40;2.78;;;1.25;;
55212;SDS011;41083;52.932;6.674;2022-08-19T04:48:08;2.25;;;0.85;;
55212;SDS011;41083;52.932;6.674;2022-08-19T04:50:34;2.50;;;1.15;;
55212;SDS011;41083;52.932;6.674;2022-08-19T04:53:00;2.85;;;1.23;;
55212;SDS011;41083;52.932;6.674;2022-08-19T04:55:26;2.80;;;1.35;;
55212;SDS011;41083;52.932;6.674;2022-08-19T04:57:51;2.60;;;1.40;;
55212;SDS011;41083;52.932;6.674;2022-08-19T05:00:17;2.83;;;1.38;;
55212;SDS011;41083;52.932;6.674;2022-08-19T05:02:43;1.92;;;1.00;;
55212;SDS011;41083;52.932;6.674;2022-08-19T05:05:08;2.50;;;1.20;;
55212;SDS011;41083;52.932;6.674;2022-08-19T05:07:34;3.35;;;1.33;;
55212;SDS011;41083;52.932;6.674;2022-08-19T05:10:01;1.55;;;0.75;;
55212;SDS011;41083;52.932;6.674;2022-08-19T05:12:28;1.60;;;0.57;;
55212;SDS011;41083;52.932;6.674;2022-08-19T05:14:53;2.28;;;0.80;;
55212;SDS011;41083;52.932;6.674;2022-08-19T05:17:19;2.13;;;0.82;;
55212;SDS011;41083;52.932;6.674;2022-08-19T05:19:45;1.05;;;0.57;;
55212;SDS011;41083;52.932;6.674;2022-08-19T05:22:29;2.63;;;1.08;;
55212;SDS011;41083;52.932;6.674;2022-08-19T05:25:11;2.05;;;0.93;;
55212;SDS011;41083;52.932;6.674;2022-08-19T05:27:38;2.33;;;1.08;;
55212;SDS011;41083;52.932;6.674;2022-08-19T05:30:05;2.78;;;0.95;;
55212;SDS011;41083;52.932;6.674;2022-08-19T05:32:31;2.22;;;0.80;;
55212;SDS011;41083;52.932;6.674;2022-08-19T05:34:56;2.60;;;0.90;;
55212;SDS011;41083;52.932;6.674;2022-08-19T05:37:22;3.22;;;1.48;;
55212;SDS011;41083;52.932;6.674;2022-08-19T05:39:48;2.78;;;1.25;;
55212;SDS011;41083;52.932;6.674;2022-08-19T05:42:14;5.90;;;1.92;;
55212;SDS011;41083;52.932;6.674;2022-08-19T05:44:41;4.55;;;1.77;;
55212;SDS011;41083;52.932;6.674;2022-08-19T05:47:09;3.63;;;1.77;;
55212;SDS011;41083;52.932;6.674;2022-08-19T05:49:36;4.15;;;1.80;;
55212;SDS011;41083;52.932;6.674;2022-08-19T05:52:03;4.63;;;1.90;;
55212;SDS011;41083;52.932;6.674;2022-08-19T05:54:30;4.97;;;2.38;;
55212;SDS011;41083;52.932;6.674;2022-08-19T05:56:56;5.53;;;2.70;;
55212;SDS011;41083;52.932;6.674;2022-08-19T05:59:22;6.35;;;2.75;;
55212;SDS011;41083;52.932;6.674;2022-08-19T06:01:48;7.10;;;3.17;;
55212;SDS011;41083;52.932;6.674;2022-08-19T06:04:16;5.43;;;2.28;;
55212;SDS011;41083;52.932;6.674;2022-08-19T06:06:44;5.60;;;2.53;;
55212;SDS011;41083;52.932;6.674;2022-08-19T06:09:11;5.93;;;2.65;;
55212;SDS011;41083;52.932;6.674;2022-08-19T06:11:38;6.85;;;2.85;;
55212;SDS011;41083;52.932;6.674;2022-08-19T06:14:07;6.43;;;3.08;;
55212;SDS011;41083;52.932;6.674;2022-08-19T06:16:39;6.43;;;2.85;;
55212;SDS011;41083;52.932;6.674;2022-08-19T06:19:07;6.72;;;2.85;;
55212;SDS011;41083;52.932;6.674;2022-08-19T06:21:35;10.13;;;3.20;;
55212;SDS011;41083;52.932;6.674;2022-08-19T06:24:03;7.05;;;3.03;;
55212;SDS011;41083;52.932;6.674;2022-08-19T06:26:31;5.95;;;2.88;;
55212;SDS011;41083;52.932;6.674;2022-08-19T06:28:59;5.43;;;2.50;;
55212;SDS011;41083;52.932;6.674;2022-08-19T06:31:25;5.88;;;2.78;;
55212;SDS011;41083;52.932;6.674;2022-08-19T06:33:52;5.95;;;2.13;;
55212;SDS011;41083;52.932;6.674;2022-08-19T06:36:26;7.50;;;3.05;;
55212;SDS011;41083;52.932;6.674;2022-08-19T06:38:56;6.53;;;2.58;;
55212;SDS011;41083;52.932;6.674;2022-08-19T06:41:23;6.50;;;3.28;;
55212;SDS011;41083;52.932;6.674;2022-08-19T06:43:50;6.18;;;2.58;;
55212;SDS011;41083;52.932;6.674;2022-08-19T06:46:16;5.53;;;3.20;;
55212;SDS011;41083;52.932;6.674;2022-08-19T06:48:44;4.78;;;2.25;;
55212;SDS011;41083;52.932;6.674;2022-08-19T06:51:12;4.57;;;2.63;;
55212;SDS011;41083;52.932;6.674;2022-08-19T06:53:40;6.50;;;2.78;;
55212;SDS011;41083;52.932;6.674;2022-08-19T06:56:10;6.97;;;2.47;;
55212;SDS011;41083;52.932;6.674;2022-08-19T06:58:36;5.57;;;2.50;;
55212;SDS011;41083;52.932;6.674;2022-08-19T07:01:03;4.43;;;2.45;;
55212;SDS011;41083;52.932;6.674;2022-08-19T07:03:30;5.18;;;2.38;;
55212;SDS011;41083;52.932;6.674;2022-08-19T07:06:02;7.35;;;3.22;;
55212;SDS011;41083;52.932;6.674;2022-08-19T07:08:32;7.40;;;2.97;;
55212;SDS011;41083;52.932;6.674;2022-08-19T07:10:59;4.53;;;2.55;;
55212;SDS011;41083;52.932;6.674;2022-08-19T07:13:25;3.97;;;2.30;;
55212;SDS011;41083;52.932;6.674;2022-08-19T07:15:51;4.50;;;2.28;;
55212;SDS011;41083;52.932;6.674;2022-08-19T07:18:18;5.30;;;2.80;;
55212;SDS011;41083;52.932;6.674;2022-08-19T07:20:44;6.25;;;2.72;;
55212;SDS011;41083;52.932;6.674;2022-08-19T07:23:10;4.75;;;2.17;;
55212;SDS011;41083;52.932;6.674;2022-08-19T07:25:36;5.60;;;2.70;;
55212;SDS011;41083;52.932;6.674;2022-08-19T07:28:03;6.03;;;2.80;;
55212;SDS011;41083;52.932;6.674;2022-08-19T07:30:29;5.70;;;2.60;;
55212;SDS011;41083;52.932;6.674;2022-08-19T07:32:55;6.70;;;2.85;;
55212;SDS011;41083;52.932;6.674;2022-08-19T07:35:21;6.30;;;2.78;;
55212;SDS011;41083;52.932;6.674;2022-08-19T07:37:48;5.07;;;2.53;;
55212;SDS011;41083;52.932;6.674;2022-08-19T07:40:14;7.88;;;2.78;;
55212;SDS011;41083;52.932;6.674;2022-08-19T07:42:40;6.40;;;3.00;;
55212;SDS011;41083;52.932;6.674;2022-08-19T07:45:07;6.47;;;3.08;;
55212;SDS011;41083;52.932;6.674;2022-08-19T07:47:34;4.28;;;2.58;;
55212;SDS011;41083;52.932;6.674;2022-08-19T07:49:59;4.88;;;2.53;;
55212;SDS011;41083;52.932;6.674;2022-08-19T07:52:25;5.57;;;3.17;;
55212;SDS011;41083;52.932;6.674;2022-08-19T07:54:51;6.20;;;3.00;;
55212;SDS011;41083;52.932;6.674;2022-08-19T07:57:17;5.38;;;2.95;;
55212;SDS011;41083;52.932;6.674;2022-08-19T07:59:43;6.55;;;3.10;;
55212;SDS011;41083;52.932;6.674;2022-08-19T08:02:09;6.97;;;3.20;;
55212;SDS011;41083;52.932;6.674;2022-08-19T08:04:35;4.63;;;2.17;;
55212;SDS011;41083;52.932;6.674;2022-08-19T08:07:19;7.32;;;3.25;;
55212;SDS011;41083;52.932;6.674;2022-08-19T08:10:04;7.95;;;3.15;;
55212;SDS011;41083;52.932;6.674;2022-08-19T08:12:37;5.00;;;2.90;;
55212;SDS011;41083;52.932;6.674;2022-08-19T08:15:09;5.50;;;3.00;;
55212;SDS011;41083;52.932;6.674;2022-08-19T08:17:43;7.57;;;3.53;;
55212;SDS011;41083;52.932;6.674;2022-08-19T08:20:10;6.43;;;3.03;;
55212;SDS011;41083;52.932;6.674;2022-08-19T08:22:37;6.30;;;3.38;;
55212;SDS011;41083;52.932;6.674;2022-08-19T08:25:26;5.43;;;2.78;;
55212;SDS011;41083;52.932;6.674;2022-08-19T08:27:51;5.68;;;3.10;;
55212;SDS011;41083;52.932;6.674;2022-08-19T08:30:24;8.60;;;4.28;;
55212;SDS011;41083;52.932;6.674;2022-08-19T08:32:51;6.75;;;3.03;;
55212;SDS011;41083;52.932;6.674;2022-08-19T08:35:18;6.63;;;3.28;;
55212;SDS011;41083;52.932;6.674;2022-08-19T08:37:45;6.03;;;3.05;;
55212;SDS011;41083;52.932;6.674;2022-08-19T08:40:26;7.60;;;3.75;;
55212;SDS011;41083;52.932;6.674;2022-08-19T08:45:55;5.97;;;2.78;;
55212;SDS011;41083;52.932;6.674;2022-08-19T08:51:05;6.57;;;3.13;;
55212;SDS011;41083;52.932;6.674;2022-08-19T08:53:35;7.32;;;3.83;;
55212;SDS011;41083;52.932;6.674;2022-08-19T08:56:02;6.97;;;3.63;;
55212;SDS011;41083;52.932;6.674;2022-08-19T08:58:36;7.57;;;3.72;;
55212;SDS011;41083;52.932;6.674;2022-08-19T09:01:11;8.13;;;3.97;;
55212;SDS011;41083;52.932;6.674;2022-08-19T09:03:37;10.75;;;4.10;;
55212;SDS011;41083;52.932;6.674;2022-08-19T09:17:23;4.43;;;2.67;;
55212;SDS011;41083;52.932;6.674;2022-08-19T09:19:57;8.48;;;3.58;;
55212;SDS011;41083;52.932;6.674;2022-08-19T09:22:28;5.35;;;2.85;;
55212;SDS011;41083;52.932;6.674;2022-08-19T09:24:54;6.65;;;3.35;;
55212;SDS011;41083;52.932;6.674;2022-08-19T09:27:21;8.25;;;3.65;;
55212;SDS011;41083;52.932;6.674;2022-08-19T09:29:49;5.68;;;3.28;;
55212;SDS011;41083;52.932;6.674;2022-08-19T09:32:15;5.13;;;3.00;;
55212;SDS011;41083;52.932;6.674;2022-08-19T09:34:43;6.65;;;3.22;;
55212;SDS011;41083;52.932;6.674;2022-08-19T09:37:08;4.80;;;2.72;;
55212;SDS011;41083;52.932;6.674;2022-08-19T09:39:35;7.45;;;4.03;;
55212;SDS011;41083;52.932;6.674;2022-08-19T09:42:00;7.88;;;3.42;;
55212;SDS011;41083;52.932;6.674;2022-08-19T09:44:28;6.53;;;3.40;;
55212;SDS011;41083;52.932;6.674;2022-08-19T09:46:54;6.25;;;3.25;;
55212;SDS011;41083;52.932;6.674;2022-08-19T09:49:21;5.63;;;3.15;;
55212;SDS011;41083;52.932;6.674;2022-08-19T09:51:49;7.35;;;3.15;;
55212;SDS011;41083;52.932;6.674;2022-08-19T09:54:15;6.25;;;3.63;;
55212;SDS011;41083;52.932;6.674;2022-08-19T09:56:41;6.00;;;3.65;;
55212;SDS011;41083;52.932;6.674;2022-08-19T09:59:07;8.07;;;4.25;;
55212;SDS011;41083;52.932;6.674;2022-08-19T10:01:34;6.90;;;3.67;;
55212;SDS011;41083;52.932;6.674;2022-08-19T10:04:00;5.50;;;2.95;;
55212;SDS011;41083;52.932;6.674;2022-08-19T10:06:28;6.80;;;3.60;;
55212;SDS011;41083;52.932;6.674;2022-08-19T10:08:57;7.95;;;3.80;;
55212;SDS011;41083;52.932;6.674;2022-08-19T10:11:24;7.57;;;3.63;;
55212;SDS011;41083;52.932;6.674;2022-08-19T10:13:50;7.30;;;3.72;;
55212;SDS011;41083;52.932;6.674;2022-08-19T10:16:17;6.82;;;3.65;;
55212;SDS011;41083;52.932;6.674;2022-08-19T10:18:46;5.78;;;3.45;;
55212;SDS011;41083;52.932;6.674;2022-08-19T10:21:17;8.90;;;3.83;;
55212;SDS011;41083;52.932;6.674;2022-08-19T10:23:51;8.75;;;3.53;;
55212;SDS011;41083;52.932;6.674;2022-08-19T10:26:21;6.00;;;3.10;;
55212;SDS011;41083;52.932;6.674;2022-08-19T10:28:48;5.55;;;2.85;;
55212;SDS011;41083;52.932;6.674;2022-08-19T10:31:16;6.03;;;3.13;;
55212;SDS011;41083;52.932;6.674;2022-08-19T10:33:53;6.55;;;3.58;;
55212;SDS011;41083;52.932;6.674;2022-08-19T10:36:24;5.55;;;3.03;;
55212;SDS011;41083;52.932;6.674;2022-08-19T10:38:54;7.43;;;3.53;;
55212;SDS011;41083;52.932;6.674;2022-08-19T10:41:23;7.68;;;4.13;;
55212;SDS011;41083;52.932;6.674;2022-08-19T10:43:54;6.90;;;3.90;;
55212;SDS011;41083;52.932;6.674;2022-08-19T10:46:23;7.20;;;3.53;;
55212;SDS011;41083;52.932;6.674;2022-08-19T10:48:50;4.88;;;2.85;;
55212;SDS011;41083;52.932;6.674;2022-08-19T10:51:16;6.55;;;3.50;;
55212;SDS011;41083;52.932;6.674;2022-08-19T10:54:01;4.55;;;2.88;;
55212;SDS011;41083;52.932;6.674;2022-08-19T10:56:28;5.90;;;3.10;;
55212;SDS011;41083;52.932;6.674;2022-08-19T10:59:13;6.67;;;2.80;;
55212;SDS011;41083;52.932;6.674;2022-08-19T11:01:41;5.07;;;2.88;;
55212;SDS011;41083;52.932;6.674;2022-08-19T11:04:08;5.38;;;2.53;;
55212;SDS011;41083;52.932;6.674;2022-08-19T11:06:38;6.22;;;3.80;;
55212;SDS011;41083;52.932;6.674;2022-08-19T11:09:08;4.93;;;2.65;;
55212;SDS011;41083;52.932;6.674;2022-08-19T11:11:35;6.80;;;3.45;;
55212;SDS011;41083;52.932;6.674;2022-08-19T11:14:05;5.18;;;3.05;;
55212;SDS011;41083;52.932;6.674;2022-08-19T11:16:39;6.65;;;3.60;;
55212;SDS011;41083;52.932;6.674;2022-08-19T11:19:07;7.35;;;3.60;;
55212;SDS011;41083;52.932;6.674;2022-08-19T11:21:35;6.07;;;3.40;;
55212;SDS011;41083;52.932;6.674;2022-08-19T11:24:04;5.00;;;2.92;;
55212;SDS011;41083;52.932;6.674;2022-08-19T11:26:35;5.45;;;2.97;;
55212;SDS011;41083;52.932;6.674;2022-08-19T11:29:02;5.22;;;3.20;;
55212;SDS011;41083;52.932;6.674;2022-08-19T11:31:29;6.05;;;3.13;;
55212;SDS011;41083;52.932;6.674;2022-08-19T11:33:57;5.40;;;2.80;;
55212;SDS011;41083;52.932;6.674;2022-08-19T11:36:25;5.70;;;2.60;;
55212;SDS011;41083;52.932;6.674;2022-08-19T11:38:51;5.22;;;2.85;;
55212;SDS011;41083;52.932;6.674;2022-08-19T11:41:19;4.45;;;2.72;;
55212;SDS011;41083;52.932;6.674;2022-08-19T11:43:47;5.28;;;3.05;;
55212;SDS011;41083;52.932;6.674;2022-08-19T11:46:14;6.65;;;3.58;;
55212;SDS011;41083;52.932;6.674;2022-08-19T11:48:41;6.25;;;3.35;;
55212;SDS011;41083;52.932;6.674;2022-08-19T11:51:08;7.05;;;3.50;;
55212;SDS011;41083;52.932;6.674;2022-08-19T11:53:36;7.20;;;3.17;;
55212;SDS011;41083;52.932;6.674;2022-08-19T11:56:02;5.47;;;3.00;;
55212;SDS011;41083;52.932;6.674;2022-08-19T11:58:30;4.63;;;2.60;;
55212;SDS011;41083;52.932;6.674;2022-08-19T12:00:55;5.25;;;3.00;;
55212;SDS011;41083;52.932;6.674;2022-08-19T12:03:21;6.53;;;3.70;;
55212;SDS011;41083;52.932;6.674;2022-08-19T12:05:48;7.53;;;3.65;;
55212;SDS011;41083;52.932;6.674;2022-08-19T12:08:14;4.72;;;3.00;;
55212;SDS011;41083;52.932;6.674;2022-08-19T12:10:40;4.40;;;2.78;;
55212;SDS011;41083;52.932;6.674;2022-08-19T12:13:07;6.90;;;3.83;;
55212;SDS011;41083;52.932;6.674;2022-08-19T12:15:37;7.28;;;4.53;;
55212;SDS011;41083;52.932;6.674;2022-08-19T12:18:05;6.25;;;3.92;;
55212;SDS011;41083;52.932;6.674;2022-08-19T12:20:34;6.60;;;4.10;;
55212;SDS011;41083;52.932;6.674;2022-08-19T12:23:01;6.03;;;4.03;;
55212;SDS011;41083;52.932;6.674;2022-08-19T12:25:27;6.55;;;4.07;;
55212;SDS011;41083;52.932;6.674;2022-08-19T12:27:52;3.83;;;2.40;;
55212;SDS011;41083;52.932;6.674;2022-08-19T12:30:18;5.18;;;2.45;;
55212;SDS011;41083;52.932;6.674;2022-08-19T12:32:43;4.80;;;2.70;;
55212;SDS011;41083;52.932;6.674;2022-08-19T12:35:09;4.00;;;2.20;;
55212;SDS011;41083;52.932;6.674;2022-08-19T12:37:35;3.13;;;1.90;;
55212;SDS011;41083;52.932;6.674;2022-08-19T12:40:01;3.88;;;1.45;;
55212;SDS011;41083;52.932;6.674;2022-08-19T12:42:28;2.40;;;1.20;;
55212;SDS011;41083;52.932;6.674;2022-08-19T12:44:54;4.50;;;2.00;;
55212;SDS011;41083;52.932;6.674;2022-08-19T12:47:20;3.20;;;1.83;;
55212;SDS011;41083;52.932;6.674;2022-08-19T12:49:46;3.03;;;1.73;;
55212;SDS011;41083;52.932;6.674;2022-08-19T12:52:12;3.63;;;1.83;;
55212;SDS011;41083;52.932;6.674;2022-08-19T12:54:41;3.17;;;1.63;;
55212;SDS011;41083;52.932;6.674;2022-08-19T12:57:08;4.45;;;1.90;;
55212;SDS011;41083;52.932;6.674;2022-08-19T12:59:35;2.75;;;1.70;;
55212;SDS011;41083;52.932;6.674;2022-08-19T13:02:02;3.00;;;1.60;;
55212;SDS011;41083;52.932;6.674;2022-08-19T13:04:31;2.92;;;1.15;;
55212;SDS011;41083;52.932;6.674;2022-08-19T13:06:57;2.10;;;1.15;;
55212;SDS011;41083;52.932;6.674;2022-08-19T13:09:23;2.28;;;1.50;;
55212;SDS011;41083;52.932;6.674;2022-08-19T13:11:49;3.72;;;1.50;;
55212;SDS011;41083;52.932;6.674;2022-08-19T13:14:15;5.43;;;2.28;;
55212;SDS011;41083;52.932;6.674;2022-08-19T13:16:40;2.50;;;1.23;;
55212;SDS011;41083;52.932;6.674;2022-08-19T13:19:07;1.63;;;1.10;;
55212;SDS011;41083;52.932;6.674;2022-08-19T13:21:33;2.22;;;1.40;;
55212;SDS011;41083;52.932;6.674;2022-08-19T13:23:59;2.85;;;1.30;;
55212;SDS011;41083;52.932;6.674;2022-08-19T13:26:24;3.00;;;1.50;;
55212;SDS011;41083;52.932;6.674;2022-08-19T13:28:50;4.47;;;2.05;;
55212;SDS011;41083;52.932;6.674;2022-08-19T13:31:45;3.75;;;1.90;;
55212;SDS011;41083;52.932;6.674;2022-08-19T13:34:31;2.55;;;1.60;;
55212;SDS011;41083;52.932;6.674;2022-08-19T13:36:58;3.08;;;1.67;;
55212;SDS011;41083;52.932;6.674;2022-08-19T13:39:25;3.67;;;2.13;;
55212;SDS011;41083;52.932;6.674;2022-08-19T13:41:50;4.55;;;2.38;;
55212;SDS011;41083;52.932;6.674;2022-08-19T13:44:16;3.20;;;2.35;;
55212;SDS011;41083;52.932;6.674;2022-08-19T13:46:45;2.85;;;1.70;;
55212;SDS011;41083;52.932;6.674;2022-08-19T13:49:13;4.35;;;2.50;;
55212;SDS011;41083;52.932;6.674;2022-08-19T13:51:40;3.80;;;2.75;;
55212;SDS011;41083;52.932;6.674;2022-08-19T13:54:07;6.18;;;2.88;;
55212;SDS011;41083;52.932;6.674;2022-08-19T13:56:34;4.97;;;2.63;;
55212;SDS011;41083;52.932;6.674;2022-08-19T13:59:00;4.50;;;2.88;;
55212;SDS011;41083;52.932;6.674;2022-08-19T14:01:26;3.47;;;2.38;;
55212;SDS011;41083;52.932;6.674;2022-08-19T14:03:51;4.57;;;2.60;;
55212;SDS011;41083;52.932;6.674;2022-08-19T14:06:18;3.95;;;2.25;;
55212;SDS011;41083;52.932;6.674;2022-08-19T14:08:44;5.00;;;2.67;;
55212;SDS011;41083;52.932;6.674;2022-08-19T14:11:10;7.30;;;4.03;;
55212;SDS011;41083;52.932;6.674;2022-08-19T14:13:35;8.25;;;4.60;;
55212;SDS011;41083;52.932;6.674;2022-08-19T14:16:05;8.32;;;4.85;;
55212;SDS011;41083;52.932;6.674;2022-08-19T14:18:32;8.18;;;4.53;;
55212;SDS011;41083;52.932;6.674;2022-08-19T14:20:58;8.07;;;4.60;;
55212;SDS011;41083;52.932;6.674;2022-08-19T14:23:23;9.70;;;4.97;;
55212;SDS011;41083;52.932;6.674;2022-08-19T14:25:49;9.27;;;5.05;;
55212;SDS011;41083;52.932;6.674;2022-08-19T14:28:15;9.93;;;4.55;;
55212;SDS011;41083;52.932;6.674;2022-08-19T14:30:41;10.85;;;5.38;;
55212;SDS011;41083;52.932;6.674;2022-08-19T14:33:09;8.48;;;4.70;;
55212;SDS011;41083;52.932;6.674;2022-08-19T14:35:35;8.45;;;4.40;;
55212;SDS011;41083;52.932;6.674;2022-08-19T14:38:05;8.25;;;4.72;;
55212;SDS011;41083;52.932;6.674;2022-08-19T14:40:39;8.57;;;4.47;;
55212;SDS011;41083;52.932;6.674;2022-08-19T14:43:06;8.90;;;4.40;;
55212;SDS011;41083;52.932;6.674;2022-08-19T14:45:37;11.15;;;4.88;;
55212;SDS011;41083;52.932;6.674;2022-08-19T14:48:04;7.50;;;4.07;;
55212;SDS011;41083;52.932;6.674;2022-08-19T14:50:32;8.40;;;4.68;;
55212;SDS011;41083;52.932;6.674;2022-08-19T14:52:59;10.13;;;5.20;;
55212;SDS011;41083;52.932;6.674;2022-08-19T14:55:34;10.80;;;5.38;;
55212;SDS011;41083;52.932;6.674;2022-08-19T14:58:00;10.90;;;6.05;;
55212;SDS011;41083;52.932;6.674;2022-08-19T15:00:26;11.00;;;5.35;;
55212;SDS011;41083;52.932;6.674;2022-08-19T15:02:52;9.85;;;5.10;;
55212;SDS011;41083;52.932;6.674;2022-08-19T15:05:19;8.90;;;4.70;;
55212;SDS011;41083;52.932;6.674;2022-08-19T15:07:46;9.93;;;5.10;;
55212;SDS011;41083;52.932;6.674;2022-08-19T15:10:12;11.02;;;4.82;;